sensor_id;sensor_type;location;lat;lon;timestamp;P1;durP1;ratioP1;P2;durP2;ratioP2
60169;SDS011;46042;49.444;6.862;2022-09-13T00:01:07;15.88;;;4.50;;
60169;SDS011;46042;49.444;6.862;2022-09-13T00:03:34;12.60;;;5.50;;
60169;SDS011;46042;49.444;6.862;2022-09-13T00:06:12;18.80;;;4.43;;
60169;SDS011;46042;49.444;6.862;2022-09-13T00:08:41;10.18;;;4.85;;
60169;SDS011;46042;49.444;6.862;2022-09-13T00:11:16;5.20;;;3.78;;
60169;SDS011;46042;49.444;6.862;2022-09-13T00:14:03;14.45;;;4.07;;
60169;SDS011;46042;49.444;6.862;2022-09-13T00:16:30;10.35;;;4.10;;
60169;SDS011;46042;49.444;6.862;2022-09-13T00:18:58;10.68;;;3.83;;
60169;SDS011;46042;49.444;6.862;2022-09-13T00:21:25;7.13;;;3.78;;
60169;SDS011;46042;49.444;6.862;2022-09-13T00:23:55;5.95;;;3.80;;
60169;SDS011;46042;49.444;6.862;2022-09-13T00:26:24;8.18;;;4.00;;
60169;SDS011;46042;49.444;6.862;2022-09-13T00:28:56;11.13;;;3.97;;
60169;SDS011;46042;49.444;6.862;2022-09-13T00:31:24;8.45;;;4.53;;
60169;SDS011;46042;49.444;6.862;2022-09-13T00:33:57;5.40;;;3.53;;
60169;SDS011;46042;49.444;6.862;2022-09-13T00:36:27;8.82;;;3.90;;
60169;SDS011;46042;49.444;6.862;2022-09-13T00:38:54;11.65;;;4.07;;
60169;SDS011;46042;49.444;6.862;2022-09-13T00:41:21;6.22;;;3.58;;
60169;SDS011;46042;49.444;6.862;2022-09-13T00:43:49;7.72;;;4.03;;
60169;SDS011;46042;49.444;6.862;2022-09-13T00:46:22;6.38;;;3.20;;
60169;SDS011;46042;49.444;6.862;2022-09-13T00:49:14;5.45;;;3.58;;
60169;SDS011;46042;49.444;6.862;2022-09-13T00:52:09;8.35;;;3.45;;
60169;SDS011;46042;49.444;6.862;2022-09-13T00:54:45;6.53;;;3.22;;
60169;SDS011;46042;49.444;6.862;2022-09-13T00:57:20;4.63;;;3.35;;
60169;SDS011;46042;49.444;6.862;2022-09-13T01:00:23;6.70;;;5.03;;
60169;SDS011;46042;49.444;6.862;2022-09-13T01:02:44;8.02;;;3.65;;
60169;SDS011;46042;49.444;6.862;2022-09-13T01:05:17;11.43;;;4.05;;
60169;SDS011;46042;49.444;6.862;2022-09-13T01:07:47;9.40;;;3.85;;
60169;SDS011;46042;49.444;6.862;2022-09-13T01:10:14;10.02;;;4.90;;
60169;SDS011;46042;49.444;6.862;2022-09-13T01:12:44;8.13;;;4.50;;
60169;SDS011;46042;49.444;6.862;2022-09-13T01:15:19;15.43;;;4.75;;
60169;SDS011;46042;49.444;6.862;2022-09-13T01:17:46;13.27;;;4.38;;
60169;SDS011;46042;49.444;6.862;2022-09-13T01:20:13;7.55;;;4.15;;
60169;SDS011;46042;49.444;6.862;2022-09-13T01:22:55;21.40;;;4.45;;
60169;SDS011;46042;49.444;6.862;2022-09-13T01:25:45;6.95;;;3.83;;
60169;SDS011;46042;49.444;6.862;2022-09-13T01:34:36;7.07;;;3.92;;
60169;SDS011;46042;49.444;6.862;2022-09-13T01:43:24;13.57;;;4.55;;
60169;SDS011;46042;49.444;6.862;2022-09-13T01:46:17;15.20;;;4.75;;
60169;SDS011;46042;49.444;6.862;2022-09-13T01:51:36;7.18;;;4.32;;
60169;SDS011;46042;49.444;6.862;2022-09-13T01:54:17;11.23;;;4.50;;
60169;SDS011;46042;49.444;6.862;2022-09-13T01:59:39;9.40;;;4.38;;
60169;SDS011;46042;49.444;6.862;2022-09-13T02:02:24;13.38;;;5.05;;
60169;SDS011;46042;49.444;6.862;2022-09-13T02:05:10;7.55;;;4.20;;
60169;SDS011;46042;49.444;6.862;2022-09-13T02:08:04;6.38;;;4.07;;
60169;SDS011;46042;49.444;6.862;2022-09-13T02:10:40;12.15;;;4.28;;
60169;SDS011;46042;49.444;6.862;2022-09-13T02:13:16;7.85;;;4.15;;
60169;SDS011;46042;49.444;6.862;2022-09-13T02:15:53;10.68;;;4.65;;
60169;SDS011;46042;49.444;6.862;2022-09-13T02:18:42;11.85;;;4.38;;
60169;SDS011;46042;49.444;6.862;2022-09-13T02:21:18;7.30;;;4.80;;
60169;SDS011;46042;49.444;6.862;2022-09-13T02:23:54;10.48;;;4.93;;
60169;SDS011;46042;49.444;6.862;2022-09-13T02:26:30;11.98;;;4.65;;
60169;SDS011;46042;49.444;6.862;2022-09-13T02:29:00;7.38;;;4.10;;
60169;SDS011;46042;49.444;6.862;2022-09-13T02:31:34;13.82;;;5.22;;
60169;SDS011;46042;49.444;6.862;2022-09-13T02:34:28;8.90;;;4.80;;
60169;SDS011;46042;49.444;6.862;2022-09-13T02:37:01;10.25;;;4.47;;
60169;SDS011;46042;49.444;6.862;2022-09-13T02:39:32;9.60;;;5.03;;
60169;SDS011;46042;49.444;6.862;2022-09-13T02:42:09;14.65;;;4.75;;
60169;SDS011;46042;49.444;6.862;2022-09-13T02:44:51;17.65;;;4.57;;
60169;SDS011;46042;49.444;6.862;2022-09-13T02:50:15;9.63;;;4.75;;
60169;SDS011;46042;49.444;6.862;2022-09-13T02:53:00;6.28;;;4.25;;
60169;SDS011;46042;49.444;6.862;2022-09-13T02:55:54;10.57;;;5.30;;
60169;SDS011;46042;49.444;6.862;2022-09-13T02:58:34;7.30;;;3.78;;
60169;SDS011;46042;49.444;6.862;2022-09-13T03:01:10;11.80;;;4.93;;
60169;SDS011;46042;49.444;6.862;2022-09-13T03:03:37;9.32;;;4.40;;
60169;SDS011;46042;49.444;6.862;2022-09-13T03:06:04;5.57;;;3.95;;
60169;SDS011;46042;49.444;6.862;2022-09-13T03:08:31;8.70;;;5.15;;
60169;SDS011;46042;49.444;6.862;2022-09-13T03:11:16;9.13;;;5.55;;
60169;SDS011;46042;49.444;6.862;2022-09-13T03:19:46;12.70;;;5.13;;
60169;SDS011;46042;49.444;6.862;2022-09-13T03:22:47;10.73;;;5.15;;
60169;SDS011;46042;49.444;6.862;2022-09-13T03:28:42;9.35;;;4.97;;
60169;SDS011;46042;49.444;6.862;2022-09-13T03:36:55;7.93;;;5.20;;
60169;SDS011;46042;49.444;6.862;2022-09-13T03:39:34;15.52;;;5.80;;
60169;SDS011;46042;49.444;6.862;2022-09-13T03:42:17;16.13;;;5.30;;
60169;SDS011;46042;49.444;6.862;2022-09-13T03:44:50;8.75;;;4.80;;
60169;SDS011;46042;49.444;6.862;2022-09-13T03:47:20;12.15;;;5.10;;
60169;SDS011;46042;49.444;6.862;2022-09-13T03:52:20;10.32;;;4.70;;
60169;SDS011;46042;49.444;6.862;2022-09-13T03:54:47;7.32;;;4.15;;
60169;SDS011;46042;49.444;6.862;2022-09-13T03:57:14;10.00;;;4.82;;
60169;SDS011;46042;49.444;6.862;2022-09-13T03:59:49;10.77;;;4.00;;
60169;SDS011;46042;49.444;6.862;2022-09-13T04:02:21;7.15;;;3.90;;
60169;SDS011;46042;49.444;6.862;2022-09-13T04:04:52;10.00;;;4.40;;
60169;SDS011;46042;49.444;6.862;2022-09-13T04:07:28;8.98;;;4.22;;
60169;SDS011;46042;49.444;6.862;2022-09-13T04:09:55;8.98;;;4.65;;
60169;SDS011;46042;49.444;6.862;2022-09-13T04:12:21;12.18;;;5.47;;
60169;SDS011;46042;49.444;6.862;2022-09-13T04:14:50;10.90;;;5.00;;
60169;SDS011;46042;49.444;6.862;2022-09-13T04:17:17;9.55;;;6.03;;
60169;SDS011;46042;49.444;6.862;2022-09-13T04:19:44;16.83;;;5.15;;
60169;SDS011;46042;49.444;6.862;2022-09-13T04:22:12;10.32;;;5.20;;
60169;SDS011;46042;49.444;6.862;2022-09-13T04:24:39;13.35;;;5.47;;
60169;SDS011;46042;49.444;6.862;2022-09-13T04:27:06;9.73;;;4.97;;
60169;SDS011;46042;49.444;6.862;2022-09-13T04:29:32;8.35;;;5.45;;
60169;SDS011;46042;49.444;6.862;2022-09-13T04:31:59;13.10;;;5.03;;
60169;SDS011;46042;49.444;6.862;2022-09-13T04:34:26;11.25;;;5.28;;
60169;SDS011;46042;49.444;6.862;2022-09-13T04:36:53;7.07;;;4.72;;
60169;SDS011;46042;49.444;6.862;2022-09-13T04:39:20;9.75;;;4.80;;
60169;SDS011;46042;49.444;6.862;2022-09-13T04:41:47;5.82;;;4.15;;
60169;SDS011;46042;49.444;6.862;2022-09-13T04:44:15;10.68;;;4.68;;
60169;SDS011;46042;49.444;6.862;2022-09-13T04:46:44;9.65;;;4.78;;
60169;SDS011;46042;49.444;6.862;2022-09-13T04:49:14;7.55;;;5.22;;
60169;SDS011;46042;49.444;6.862;2022-09-13T04:51:41;19.52;;;6.30;;
60169;SDS011;46042;49.444;6.862;2022-09-13T04:54:09;9.48;;;5.63;;
60169;SDS011;46042;49.444;6.862;2022-09-13T04:56:41;9.45;;;6.05;;
60169;SDS011;46042;49.444;6.862;2022-09-13T04:59:09;11.38;;;5.15;;
60169;SDS011;46042;49.444;6.862;2022-09-13T05:01:36;8.98;;;5.85;;
60169;SDS011;46042;49.444;6.862;2022-09-13T05:04:03;8.73;;;5.30;;
60169;SDS011;46042;49.444;6.862;2022-09-13T05:06:31;11.50;;;6.13;;
60169;SDS011;46042;49.444;6.862;2022-09-13T05:08:58;10.85;;;5.10;;
60169;SDS011;46042;49.444;6.862;2022-09-13T05:11:25;13.23;;;5.47;;
60169;SDS011;46042;49.444;6.862;2022-09-13T05:13:57;13.57;;;6.00;;
60169;SDS011;46042;49.444;6.862;2022-09-13T05:16:25;14.68;;;6.05;;
60169;SDS011;46042;49.444;6.862;2022-09-13T05:18:54;19.42;;;9.57;;
60169;SDS011;46042;49.444;6.862;2022-09-13T05:21:21;16.73;;;7.80;;
60169;SDS011;46042;49.444;6.862;2022-09-13T05:23:49;15.85;;;9.13;;
60169;SDS011;46042;49.444;6.862;2022-09-13T05:26:26;13.00;;;7.53;;
60169;SDS011;46042;49.444;6.862;2022-09-13T05:28:57;15.13;;;6.22;;
60169;SDS011;46042;49.444;6.862;2022-09-13T05:31:29;20.85;;;7.13;;
60169;SDS011;46042;49.444;6.862;2022-09-13T05:33:59;14.20;;;6.43;;
60169;SDS011;46042;49.444;6.862;2022-09-13T05:36:28;14.48;;;7.03;;
60169;SDS011;46042;49.444;6.862;2022-09-13T05:38:55;15.38;;;7.55;;
60169;SDS011;46042;49.444;6.862;2022-09-13T05:41:42;21.48;;;6.95;;
60169;SDS011;46042;49.444;6.862;2022-09-13T05:44:09;13.93;;;7.05;;
60169;SDS011;46042;49.444;6.862;2022-09-13T05:46:38;16.17;;;7.07;;
60169;SDS011;46042;49.444;6.862;2022-09-13T05:49:07;17.60;;;8.85;;
60169;SDS011;46042;49.444;6.862;2022-09-13T05:51:35;18.23;;;8.57;;
60169;SDS011;46042;49.444;6.862;2022-09-13T05:54:01;21.15;;;9.57;;
60169;SDS011;46042;49.444;6.862;2022-09-13T05:56:28;17.15;;;7.40;;
60169;SDS011;46042;49.444;6.862;2022-09-13T05:58:55;13.35;;;6.93;;
60169;SDS011;46042;49.444;6.862;2022-09-13T06:01:23;18.88;;;8.80;;
60169;SDS011;46042;49.444;6.862;2022-09-13T06:03:52;13.77;;;8.20;;
60169;SDS011;46042;49.444;6.862;2022-09-13T06:06:20;17.35;;;7.28;;
60169;SDS011;46042;49.444;6.862;2022-09-13T06:08:51;16.77;;;7.35;;
60169;SDS011;46042;49.444;6.862;2022-09-13T06:11:18;20.00;;;7.03;;
60169;SDS011;46042;49.444;6.862;2022-09-13T06:13:45;14.23;;;7.45;;
60169;SDS011;46042;49.444;6.862;2022-09-13T06:16:12;10.70;;;7.05;;
60169;SDS011;46042;49.444;6.862;2022-09-13T06:18:42;11.57;;;7.43;;
60169;SDS011;46042;49.444;6.862;2022-09-13T06:21:10;19.08;;;7.80;;
60169;SDS011;46042;49.444;6.862;2022-09-13T06:23:46;17.45;;;8.25;;
60169;SDS011;46042;49.444;6.862;2022-09-13T06:26:20;13.65;;;7.50;;
60169;SDS011;46042;49.444;6.862;2022-09-13T06:28:53;15.20;;;8.30;;
60169;SDS011;46042;49.444;6.862;2022-09-13T06:31:24;19.20;;;7.95;;
60169;SDS011;46042;49.444;6.862;2022-09-13T06:33:59;17.23;;;7.72;;
60169;SDS011;46042;49.444;6.862;2022-09-13T06:36:30;11.30;;;6.72;;
60169;SDS011;46042;49.444;6.862;2022-09-13T06:38:56;18.42;;;8.23;;
60169;SDS011;46042;49.444;6.862;2022-09-13T06:41:25;16.52;;;8.52;;
60169;SDS011;46042;49.444;6.862;2022-09-13T06:43:53;17.00;;;7.43;;
60169;SDS011;46042;49.444;6.862;2022-09-13T06:46:23;13.95;;;6.93;;
60169;SDS011;46042;49.444;6.862;2022-09-13T06:48:51;16.48;;;6.93;;
60169;SDS011;46042;49.444;6.862;2022-09-13T06:51:19;18.25;;;7.88;;
60169;SDS011;46042;49.444;6.862;2022-09-13T06:53:48;24.02;;;8.23;;
60169;SDS011;46042;49.444;6.862;2022-09-13T06:56:20;15.07;;;7.82;;
60169;SDS011;46042;49.444;6.862;2022-09-13T06:59:05;24.38;;;10.88;;
60169;SDS011;46042;49.444;6.862;2022-09-13T07:01:37;26.02;;;13.45;;
60169;SDS011;46042;49.444;6.862;2022-09-13T07:04:07;28.73;;;12.13;;
60169;SDS011;46042;49.444;6.862;2022-09-13T07:06:40;29.35;;;11.73;;
60169;SDS011;46042;49.444;6.862;2022-09-13T07:09:10;21.33;;;11.85;;
60169;SDS011;46042;49.444;6.862;2022-09-13T07:11:39;19.35;;;10.20;;
60169;SDS011;46042;49.444;6.862;2022-09-13T07:14:07;20.67;;;8.75;;
60169;SDS011;46042;49.444;6.862;2022-09-13T07:16:37;18.15;;;7.95;;
60169;SDS011;46042;49.444;6.862;2022-09-13T07:19:05;21.60;;;8.57;;
60169;SDS011;46042;49.444;6.862;2022-09-13T07:21:33;21.77;;;8.10;;
60169;SDS011;46042;49.444;6.862;2022-09-13T07:24:00;26.05;;;8.27;;
60169;SDS011;46042;49.444;6.862;2022-09-13T07:26:27;15.48;;;7.70;;
60169;SDS011;46042;49.444;6.862;2022-09-13T07:28:55;15.32;;;6.97;;
60169;SDS011;46042;49.444;6.862;2022-09-13T07:31:27;21.13;;;7.13;;
60169;SDS011;46042;49.444;6.862;2022-09-13T07:34:06;16.17;;;6.53;;
60169;SDS011;46042;49.444;6.862;2022-09-13T07:36:36;16.27;;;7.18;;
60169;SDS011;46042;49.444;6.862;2022-09-13T07:39:03;12.10;;;6.65;;
60169;SDS011;46042;49.444;6.862;2022-09-13T07:41:31;18.58;;;6.78;;
60169;SDS011;46042;49.444;6.862;2022-09-13T07:43:59;18.38;;;6.30;;
60169;SDS011;46042;49.444;6.862;2022-09-13T07:46:27;14.45;;;6.30;;
60169;SDS011;46042;49.444;6.862;2022-09-13T07:48:59;16.75;;;6.10;;
60169;SDS011;46042;49.444;6.862;2022-09-13T07:51:30;12.27;;;5.53;;
60169;SDS011;46042;49.444;6.862;2022-09-13T07:54:01;11.60;;;6.50;;
60169;SDS011;46042;49.444;6.862;2022-09-13T07:56:33;13.23;;;5.70;;
60169;SDS011;46042;49.444;6.862;2022-09-13T07:59:04;10.93;;;5.47;;
60169;SDS011;46042;49.444;6.862;2022-09-13T08:04:03;12.57;;;5.90;;
60169;SDS011;46042;49.444;6.862;2022-09-13T08:06:33;17.88;;;5.65;;
60169;SDS011;46042;49.444;6.862;2022-09-13T08:09:00;20.23;;;5.43;;
60169;SDS011;46042;49.444;6.862;2022-09-13T08:11:33;11.38;;;4.85;;
60169;SDS011;46042;49.444;6.862;2022-09-13T08:14:00;17.67;;;5.50;;
60169;SDS011;46042;49.444;6.862;2022-09-13T08:16:27;10.57;;;5.20;;
60169;SDS011;46042;49.444;6.862;2022-09-13T08:18:56;9.25;;;4.75;;
60169;SDS011;46042;49.444;6.862;2022-09-13T08:21:25;14.50;;;5.30;;
60169;SDS011;46042;49.444;6.862;2022-09-13T08:23:55;11.57;;;5.10;;
60169;SDS011;46042;49.444;6.862;2022-09-13T08:26:26;7.78;;;4.88;;
60169;SDS011;46042;49.444;6.862;2022-09-13T08:28:56;12.25;;;5.32;;
60169;SDS011;46042;49.444;6.862;2022-09-13T08:31:25;8.27;;;5.25;;
60169;SDS011;46042;49.444;6.862;2022-09-13T08:33:53;16.25;;;5.72;;
60169;SDS011;46042;49.444;6.862;2022-09-13T08:36:21;15.88;;;5.45;;
60169;SDS011;46042;49.444;6.862;2022-09-13T08:38:52;12.77;;;5.25;;
60169;SDS011;46042;49.444;6.862;2022-09-13T08:49:07;9.57;;;4.53;;
60169;SDS011;46042;49.444;6.862;2022-09-13T08:51:44;6.60;;;4.25;;
60169;SDS011;46042;49.444;6.862;2022-09-13T08:54:24;12.97;;;4.57;;
60169;SDS011;46042;49.444;6.862;2022-09-13T09:08:26;10.07;;;4.70;;
60169;SDS011;46042;49.444;6.862;2022-09-13T09:13:02;10.85;;;5.13;;
60169;SDS011;46042;49.444;6.862;2022-09-13T09:15:35;9.38;;;3.97;;
60169;SDS011;46042;49.444;6.862;2022-09-13T09:20:36;8.77;;;4.35;;
60169;SDS011;46042;49.444;6.862;2022-09-13T09:23:17;8.00;;;4.07;;
60169;SDS011;46042;49.444;6.862;2022-09-13T09:25:47;6.15;;;3.75;;
60169;SDS011;46042;49.444;6.862;2022-09-13T09:28:18;10.23;;;3.95;;
60169;SDS011;46042;49.444;6.862;2022-09-13T09:31:01;14.20;;;3.83;;
60169;SDS011;46042;49.444;6.862;2022-09-13T09:39:37;7.40;;;3.17;;
60169;SDS011;46042;49.444;6.862;2022-09-13T09:42:25;9.10;;;4.45;;
60169;SDS011;46042;49.444;6.862;2022-09-13T09:45:04;9.18;;;3.60;;
60169;SDS011;46042;49.444;6.862;2022-09-13T09:47:47;5.03;;;3.40;;
60169;SDS011;46042;49.444;6.862;2022-09-13T09:50:16;6.32;;;3.72;;
60169;SDS011;46042;49.444;6.862;2022-09-13T09:55:39;7.50;;;3.83;;
60169;SDS011;46042;49.444;6.862;2022-09-13T09:58:11;9.85;;;3.33;;
60169;SDS011;46042;49.444;6.862;2022-09-13T10:00:52;6.45;;;3.58;;
60169;SDS011;46042;49.444;6.862;2022-09-13T10:03:23;6.80;;;3.22;;
60169;SDS011;46042;49.444;6.862;2022-09-13T10:06:05;7.57;;;3.30;;
60169;SDS011;46042;49.444;6.862;2022-09-13T10:08:35;10.50;;;3.85;;
60169;SDS011;46042;49.444;6.862;2022-09-13T10:11:03;7.18;;;3.50;;
60169;SDS011;46042;49.444;6.862;2022-09-13T10:13:31;8.02;;;3.10;;
60169;SDS011;46042;49.444;6.862;2022-09-13T10:15:59;10.75;;;4.00;;
60169;SDS011;46042;49.444;6.862;2022-09-13T10:18:32;5.85;;;3.03;;
60169;SDS011;46042;49.444;6.862;2022-09-13T10:23:43;6.85;;;3.90;;
60169;SDS011;46042;49.444;6.862;2022-09-13T10:26:19;4.95;;;3.75;;
60169;SDS011;46042;49.444;6.862;2022-09-13T10:31:18;4.05;;;3.10;;
60169;SDS011;46042;49.444;6.862;2022-09-13T10:36:21;3.55;;;2.83;;
60169;SDS011;46042;49.444;6.862;2022-09-13T10:39:16;3.63;;;2.33;;
60169;SDS011;46042;49.444;6.862;2022-09-13T10:41:49;7.55;;;2.17;;
60169;SDS011;46042;49.444;6.862;2022-09-13T10:44:42;3.72;;;2.22;;
60169;SDS011;46042;49.444;6.862;2022-09-13T10:47:33;4.82;;;2.47;;
60169;SDS011;46042;49.444;6.862;2022-09-13T10:50:20;3.85;;;2.20;;
60169;SDS011;46042;49.444;6.862;2022-09-13T10:52:54;3.55;;;2.35;;
60169;SDS011;46042;49.444;6.862;2022-09-13T10:55:37;2.90;;;2.15;;
60169;SDS011;46042;49.444;6.862;2022-09-13T11:03:15;3.08;;;2.10;;
60169;SDS011;46042;49.444;6.862;2022-09-13T11:12:07;5.68;;;2.42;;
60169;SDS011;46042;49.444;6.862;2022-09-13T11:51:55;3.10;;;1.77;;
60169;SDS011;46042;49.444;6.862;2022-09-13T11:57:24;3.08;;;2.42;;
60169;SDS011;46042;49.444;6.862;2022-09-13T11:59:52;3.03;;;2.00;;
60169;SDS011;46042;49.444;6.862;2022-09-13T12:05:21;3.67;;;2.00;;
60169;SDS011;46042;49.444;6.862;2022-09-13T12:11:07;3.22;;;1.80;;
60169;SDS011;46042;49.444;6.862;2022-09-13T12:13:49;4.50;;;2.00;;
60169;SDS011;46042;49.444;6.862;2022-09-13T12:16:22;2.78;;;2.10;;
60169;SDS011;46042;49.444;6.862;2022-09-13T12:19:22;7.72;;;1.95;;
60169;SDS011;46042;49.444;6.862;2022-09-13T12:21:46;7.45;;;2.35;;
60169;SDS011;46042;49.444;6.862;2022-09-13T12:26:49;4.20;;;1.90;;
60169;SDS011;46042;49.444;6.862;2022-09-13T12:31:58;4.95;;;2.38;;
60169;SDS011;46042;49.444;6.862;2022-09-13T12:34:30;3.65;;;2.42;;
60169;SDS011;46042;49.444;6.862;2022-09-13T12:37:10;3.38;;;2.40;;
60169;SDS011;46042;49.444;6.862;2022-09-13T12:42:18;4.05;;;2.08;;
60169;SDS011;46042;49.444;6.862;2022-09-13T12:47:54;2.13;;;1.92;;
60169;SDS011;46042;49.444;6.862;2022-09-13T12:53:21;3.45;;;2.80;;
60169;SDS011;46042;49.444;6.862;2022-09-13T12:59:06;5.40;;;2.13;;
60169;SDS011;46042;49.444;6.862;2022-09-13T13:01:46;4.25;;;1.70;;
60169;SDS011;46042;49.444;6.862;2022-09-13T13:07:27;2.45;;;1.73;;
60169;SDS011;46042;49.444;6.862;2022-09-13T13:09:49;2.58;;;1.77;;
60169;SDS011;46042;49.444;6.862;2022-09-13T13:15:04;2.33;;;1.83;;
60169;SDS011;46042;49.444;6.862;2022-09-13T13:29:15;11.48;;;3.10;;
60169;SDS011;46042;49.444;6.862;2022-09-13T13:33:56;5.15;;;1.90;;
60169;SDS011;46042;49.444;6.862;2022-09-13T13:36:27;7.38;;;2.30;;
60169;SDS011;46042;49.444;6.862;2022-09-13T13:38:58;37.20;;;4.57;;
60169;SDS011;46042;49.444;6.862;2022-09-13T13:45:13;4.80;;;2.03;;
60169;SDS011;46042;49.444;6.862;2022-09-13T13:57:22;4.20;;;1.65;;
60169;SDS011;46042;49.444;6.862;2022-09-13T14:20:17;2.38;;;1.63;;
60169;SDS011;46042;49.444;6.862;2022-09-13T14:22:46;2.28;;;1.73;;
60169;SDS011;46042;49.444;6.862;2022-09-13T14:27:42;1.60;;;1.50;;
60169;SDS011;46042;49.444;6.862;2022-09-13T14:30:19;4.30;;;1.60;;
60169;SDS011;46042;49.444;6.862;2022-09-13T14:32:53;2.05;;;1.80;;
60169;SDS011;46042;49.444;6.862;2022-09-13T14:35:23;1.45;;;1.35;;
60169;SDS011;46042;49.444;6.862;2022-09-13T14:37:53;7.28;;;3.97;;
60169;SDS011;46042;49.444;6.862;2022-09-13T14:40:23;2.50;;;1.65;;
60169;SDS011;46042;49.444;6.862;2022-09-13T14:42:54;1.30;;;1.20;;
60169;SDS011;46042;49.444;6.862;2022-09-13T14:45:26;3.85;;;3.10;;
60169;SDS011;46042;49.444;6.862;2022-09-13T14:51:23;2.55;;;1.80;;
60169;SDS011;46042;49.444;6.862;2022-09-13T14:53:40;2.53;;;2.17;;
60169;SDS011;46042;49.444;6.862;2022-09-13T14:56:26;2.63;;;2.10;;
60169;SDS011;46042;49.444;6.862;2022-09-13T14:58:59;3.90;;;1.70;;
60169;SDS011;46042;49.444;6.862;2022-09-13T15:01:30;2.20;;;1.70;;
60169;SDS011;46042;49.444;6.862;2022-09-13T15:03:59;1.80;;;1.70;;
60169;SDS011;46042;49.444;6.862;2022-09-13T15:06:32;3.20;;;1.67;;
60169;SDS011;46042;49.444;6.862;2022-09-13T15:11:37;5.82;;;1.58;;
60169;SDS011;46042;49.444;6.862;2022-09-13T15:22:28;2.13;;;1.45;;
60169;SDS011;46042;49.444;6.862;2022-09-13T15:24:58;1.70;;;1.50;;
60169;SDS011;46042;49.444;6.862;2022-09-13T15:27:30;1.58;;;1.48;;
60169;SDS011;46042;49.444;6.862;2022-09-13T15:30:19;1.92;;;1.40;;
60169;SDS011;46042;49.444;6.862;2022-09-13T15:32:46;4.80;;;1.30;;
60169;SDS011;46042;49.444;6.862;2022-09-13T15:35:34;3.22;;;1.70;;
60169;SDS011;46042;49.444;6.862;2022-09-13T15:40:59;4.30;;;1.50;;
60169;SDS011;46042;49.444;6.862;2022-09-13T15:43:42;2.60;;;1.70;;
60169;SDS011;46042;49.444;6.862;2022-09-13T15:46:12;2.58;;;1.45;;
60169;SDS011;46042;49.444;6.862;2022-09-13T15:48:44;2.70;;;1.40;;
60169;SDS011;46042;49.444;6.862;2022-09-13T15:51:16;1.60;;;1.40;;
60169;SDS011;46042;49.444;6.862;2022-09-13T15:53:44;5.15;;;4.32;;
60169;SDS011;46042;49.444;6.862;2022-09-13T15:56:13;8.57;;;5.40;;
60169;SDS011;46042;49.444;6.862;2022-09-13T15:58:44;6.35;;;5.38;;
60169;SDS011;46042;49.444;6.862;2022-09-13T16:01:12;4.95;;;3.33;;
60169;SDS011;46042;49.444;6.862;2022-09-13T16:03:39;2.90;;;2.00;;
60169;SDS011;46042;49.444;6.862;2022-09-13T16:06:07;4.40;;;1.80;;
60169;SDS011;46042;49.444;6.862;2022-09-13T16:08:35;7.35;;;1.60;;
60169;SDS011;46042;49.444;6.862;2022-09-13T16:11:02;6.10;;;1.67;;
60169;SDS011;46042;49.444;6.862;2022-09-13T16:13:29;2.63;;;1.90;;
60169;SDS011;46042;49.444;6.862;2022-09-13T16:15:56;3.40;;;1.70;;
60169;SDS011;46042;49.444;6.862;2022-09-13T16:18:23;1.90;;;1.60;;
60169;SDS011;46042;49.444;6.862;2022-09-13T16:20:50;2.53;;;1.50;;
60169;SDS011;46042;49.444;6.862;2022-09-13T16:23:17;3.40;;;1.75;;
60169;SDS011;46042;49.444;6.862;2022-09-13T16:25:43;1.40;;;1.13;;
60169;SDS011;46042;49.444;6.862;2022-09-13T16:28:14;1.58;;;1.45;;
60169;SDS011;46042;49.444;6.862;2022-09-13T16:30:47;4.57;;;1.30;;
60169;SDS011;46042;49.444;6.862;2022-09-13T16:33:14;2.33;;;1.50;;
60169;SDS011;46042;49.444;6.862;2022-09-13T16:35:41;3.15;;;1.45;;
60169;SDS011;46042;49.444;6.862;2022-09-13T16:38:08;2.08;;;1.58;;
60169;SDS011;46042;49.444;6.862;2022-09-13T16:40:39;2.17;;;1.40;;
60169;SDS011;46042;49.444;6.862;2022-09-13T16:43:07;2.00;;;1.73;;
60169;SDS011;46042;49.444;6.862;2022-09-13T16:45:37;5.95;;;1.60;;
60169;SDS011;46042;49.444;6.862;2022-09-13T16:50:32;2.58;;;1.42;;
60169;SDS011;46042;49.444;6.862;2022-09-13T16:53:00;6.18;;;1.60;;
60169;SDS011;46042;49.444;6.862;2022-09-13T16:55:30;1.60;;;1.50;;
60169;SDS011;46042;49.444;6.862;2022-09-13T16:57:56;2.47;;;1.40;;
60169;SDS011;46042;49.444;6.862;2022-09-13T17:00:23;4.10;;;1.52;;
60169;SDS011;46042;49.444;6.862;2022-09-13T17:02:54;3.13;;;1.60;;
60169;SDS011;46042;49.444;6.862;2022-09-13T17:05:24;4.13;;;1.48;;
60169;SDS011;46042;49.444;6.862;2022-09-13T17:08:14;1.50;;;1.40;;
60169;SDS011;46042;49.444;6.862;2022-09-13T17:10:40;2.92;;;1.40;;
60169;SDS011;46042;49.444;6.862;2022-09-13T17:13:07;1.70;;;1.45;;
60169;SDS011;46042;49.444;6.862;2022-09-13T17:15:37;2.58;;;1.30;;
60169;SDS011;46042;49.444;6.862;2022-09-13T17:18:10;3.53;;;2.13;;
60169;SDS011;46042;49.444;6.862;2022-09-13T17:20:42;2.08;;;1.70;;
60169;SDS011;46042;49.444;6.862;2022-09-13T17:23:13;3.15;;;1.52;;
60169;SDS011;46042;49.444;6.862;2022-09-13T17:25:45;2.17;;;1.40;;
60169;SDS011;46042;49.444;6.862;2022-09-13T17:28:13;2.40;;;1.95;;
60169;SDS011;46042;49.444;6.862;2022-09-13T17:30:42;7.22;;;3.78;;
60169;SDS011;46042;49.444;6.862;2022-09-13T17:33:11;3.88;;;1.58;;
60169;SDS011;46042;49.444;6.862;2022-09-13T17:35:38;16.58;;;2.78;;
60169;SDS011;46042;49.444;6.862;2022-09-13T17:38:08;2.47;;;1.58;;
60169;SDS011;46042;49.444;6.862;2022-09-13T17:40:37;2.60;;;1.52;;
60169;SDS011;46042;49.444;6.862;2022-09-13T17:43:04;11.52;;;4.72;;
60169;SDS011;46042;49.444;6.862;2022-09-13T17:45:30;2.83;;;1.70;;
60169;SDS011;46042;49.444;6.862;2022-09-13T17:47:57;3.33;;;1.90;;
60169;SDS011;46042;49.444;6.862;2022-09-13T17:50:24;2.50;;;1.70;;
60169;SDS011;46042;49.444;6.862;2022-09-13T17:52:50;2.05;;;1.83;;
60169;SDS011;46042;49.444;6.862;2022-09-13T17:55:17;1.55;;;1.40;;
60169;SDS011;46042;49.444;6.862;2022-09-13T17:57:47;1.70;;;1.50;;
60169;SDS011;46042;49.444;6.862;2022-09-13T18:00:15;2.90;;;1.67;;
60169;SDS011;46042;49.444;6.862;2022-09-13T18:02:44;2.55;;;1.55;;
60169;SDS011;46042;49.444;6.862;2022-09-13T18:05:11;1.80;;;1.60;;
60169;SDS011;46042;49.444;6.862;2022-09-13T18:07:39;3.35;;;1.60;;
60169;SDS011;46042;49.444;6.862;2022-09-13T18:10:05;1.60;;;1.50;;
60169;SDS011;46042;49.444;6.862;2022-09-13T18:12:52;8.10;;;2.10;;
60169;SDS011;46042;49.444;6.862;2022-09-13T18:15:19;7.90;;;2.72;;
60169;SDS011;46042;49.444;6.862;2022-09-13T18:17:46;7.70;;;2.63;;
60169;SDS011;46042;49.444;6.862;2022-09-13T18:20:15;9.85;;;3.15;;
60169;SDS011;46042;49.444;6.862;2022-09-13T18:22:42;4.72;;;2.45;;
60169;SDS011;46042;49.444;6.862;2022-09-13T18:25:09;4.05;;;2.33;;
60169;SDS011;46042;49.444;6.862;2022-09-13T18:27:35;3.65;;;2.40;;
60169;SDS011;46042;49.444;6.862;2022-09-13T18:30:02;4.85;;;2.33;;
60169;SDS011;46042;49.444;6.862;2022-09-13T18:32:32;6.15;;;3.42;;
60169;SDS011;46042;49.444;6.862;2022-09-13T18:34:58;4.55;;;3.22;;
60169;SDS011;46042;49.444;6.862;2022-09-13T18:37:25;8.13;;;3.13;;
60169;SDS011;46042;49.444;6.862;2022-09-13T18:39:52;5.45;;;2.38;;
60169;SDS011;46042;49.444;6.862;2022-09-13T18:42:18;9.80;;;2.80;;
60169;SDS011;46042;49.444;6.862;2022-09-13T18:44:48;4.68;;;2.50;;
60169;SDS011;46042;49.444;6.862;2022-09-13T18:47:16;7.25;;;3.42;;
60169;SDS011;46042;49.444;6.862;2022-09-13T18:49:43;11.45;;;5.00;;
60169;SDS011;46042;49.444;6.862;2022-09-13T18:52:09;11.75;;;4.32;;
60169;SDS011;46042;49.444;6.862;2022-09-13T18:54:37;6.97;;;2.95;;
60169;SDS011;46042;49.444;6.862;2022-09-13T18:57:04;9.00;;;3.75;;
60169;SDS011;46042;49.444;6.862;2022-09-13T18:59:31;6.28;;;2.65;;
60169;SDS011;46042;49.444;6.862;2022-09-13T19:02:01;3.20;;;2.00;;